Decoded Metar for LFRN (RENNES in FRANCE) (IATA:RNS) | Meteo·Mobile Aviation Weather
aviador You're here:

LFRN Decoded Metar

RENNES in FRANCE
Report Time2019-07-21 17:30:00
UTC Time2019-07-21 17:48:39
Flight Rules vfr VFR
Wind250° at 04 kt
W.Decomp.*RWY 28: 3.5 kt HW 1.9 kt LCW
RWY 32: 1.5 kt HW 3.7 kt LCW
Visibility9999 m
Phenomena:N/A
Clouds:N/A
Expected CloudBase > 5,200 ft AGL from Temp-Dew spread
CeilingNone
Temp26°C (ISA +11)
Dew Point13°C (45% RH)
AAT25.5°C
QNH1022 hPa
Density Alt1,319 ft
Elevation121 ft
Report Wrong Elevation
Raw Report
LFRN 211730Z AUTO 25004KT CAVOK 26/13 Q1022 NOSIG=

Extra information for LFRN:More info

Metar Taf Metar & Taf Last 4 Metars F.Rules Stats Wind Profile Meteogram Temp Stats Airport Information Weather charts Add Link Nearby VenuesMetar ALERT Operation Metar Decoded Social comments